sensor_id;sensor_type;location;lat;lon;timestamp;P1;durP1;ratioP1;P2;durP2;ratioP2
77838;SDS011;67034;43.226;27.932;2024-03-07T00:01:39;18.98;;;10.70;;
77838;SDS011;67034;43.226;27.932;2024-03-07T00:04:05;19.25;;;9.20;;
77838;SDS011;67034;43.226;27.932;2024-03-07T00:06:31;19.23;;;9.30;;
77838;SDS011;67034;43.226;27.932;2024-03-07T00:08:58;21.05;;;9.30;;
77838;SDS011;67034;43.226;27.932;2024-03-07T00:11:24;16.25;;;8.48;;
77838;SDS011;67034;43.226;27.932;2024-03-07T00:13:51;14.98;;;8.90;;
77838;SDS011;67034;43.226;27.932;2024-03-07T00:16:17;16.52;;;8.63;;
77838;SDS011;67034;43.226;27.932;2024-03-07T00:18:45;19.10;;;8.95;;
77838;SDS011;67034;43.226;27.932;2024-03-07T00:21:11;18.67;;;8.82;;
77838;SDS011;67034;43.226;27.932;2024-03-07T00:23:38;15.85;;;9.50;;
77838;SDS011;67034;43.226;27.932;2024-03-07T00:26:04;16.73;;;8.77;;
77838;SDS011;67034;43.226;27.932;2024-03-07T00:28:31;14.38;;;8.18;;
77838;SDS011;67034;43.226;27.932;2024-03-07T00:31:04;19.95;;;9.23;;
77838;SDS011;67034;43.226;27.932;2024-03-07T00:33:32;16.23;;;8.43;;
77838;SDS011;67034;43.226;27.932;2024-03-07T00:36:00;18.15;;;8.50;;
77838;SDS011;67034;43.226;27.932;2024-03-07T00:38:26;18.75;;;8.63;;
77838;SDS011;67034;43.226;27.932;2024-03-07T00:40:52;15.10;;;8.07;;
77838;SDS011;67034;43.226;27.932;2024-03-07T00:43:19;18.60;;;8.27;;
77838;SDS011;67034;43.226;27.932;2024-03-07T00:45:46;15.25;;;7.97;;
77838;SDS011;67034;43.226;27.932;2024-03-07T00:48:15;18.05;;;8.75;;
77838;SDS011;67034;43.226;27.932;2024-03-07T00:50:42;19.10;;;8.73;;
77838;SDS011;67034;43.226;27.932;2024-03-07T00:53:10;14.95;;;8.02;;
77838;SDS011;67034;43.226;27.932;2024-03-07T00:55:36;17.75;;;9.32;;
77838;SDS011;67034;43.226;27.932;2024-03-07T00:58:03;16.00;;;8.23;;
77838;SDS011;67034;43.226;27.932;2024-03-07T01:00:30;16.42;;;9.05;;
77838;SDS011;67034;43.226;27.932;2024-03-07T01:05:22;16.63;;;9.25;;
77838;SDS011;67034;43.226;27.932;2024-03-07T01:07:48;17.42;;;9.18;;
77838;SDS011;67034;43.226;27.932;2024-03-07T01:10:16;19.90;;;9.55;;
77838;SDS011;67034;43.226;27.932;2024-03-07T01:12:42;19.10;;;9.70;;
77838;SDS011;67034;43.226;27.932;2024-03-07T01:15:09;18.63;;;9.32;;
77838;SDS011;67034;43.226;27.932;2024-03-07T01:17:37;19.67;;;10.27;;
77838;SDS011;67034;43.226;27.932;2024-03-07T01:22:30;18.50;;;8.23;;
77838;SDS011;67034;43.226;27.932;2024-03-07T01:27:23;19.90;;;9.85;;
77838;SDS011;67034;43.226;27.932;2024-03-07T01:29:50;19.70;;;9.50;;
77838;SDS011;67034;43.226;27.932;2024-03-07T01:34:42;16.15;;;7.63;;
77838;SDS011;67034;43.226;27.932;2024-03-07T01:39:34;16.55;;;8.63;;
77838;SDS011;67034;43.226;27.932;2024-03-07T01:44:27;16.05;;;7.85;;
77838;SDS011;67034;43.226;27.932;2024-03-07T01:46:57;20.15;;;9.02;;
77838;SDS011;67034;43.226;27.932;2024-03-07T01:49:24;19.77;;;8.32;;
77838;SDS011;67034;43.226;27.932;2024-03-07T01:51:50;12.85;;;7.95;;
77838;SDS011;67034;43.226;27.932;2024-03-07T01:54:16;15.65;;;8.93;;
77838;SDS011;67034;43.226;27.932;2024-03-07T01:56:43;17.40;;;8.50;;
77838;SDS011;67034;43.226;27.932;2024-03-07T01:59:09;17.45;;;9.13;;
77838;SDS011;67034;43.226;27.932;2024-03-07T02:01:37;20.13;;;9.32;;
77838;SDS011;67034;43.226;27.932;2024-03-07T02:04:04;17.63;;;8.50;;
77838;SDS011;67034;43.226;27.932;2024-03-07T02:08:56;12.57;;;7.57;;
77838;SDS011;67034;43.226;27.932;2024-03-07T02:11:22;17.00;;;8.55;;
77838;SDS011;67034;43.226;27.932;2024-03-07T02:13:49;20.90;;;9.70;;
77838;SDS011;67034;43.226;27.932;2024-03-07T02:18:42;11.90;;;7.47;;
77838;SDS011;67034;43.226;27.932;2024-03-07T02:21:11;17.33;;;7.80;;
77838;SDS011;67034;43.226;27.932;2024-03-07T02:23:38;18.40;;;9.45;;
77838;SDS011;67034;43.226;27.932;2024-03-07T02:28:30;14.98;;;8.38;;
77838;SDS011;67034;43.226;27.932;2024-03-07T02:33:22;13.15;;;7.85;;
77838;SDS011;67034;43.226;27.932;2024-03-07T02:35:49;15.13;;;8.82;;
77838;SDS011;67034;43.226;27.932;2024-03-07T02:40:43;18.05;;;8.48;;
77838;SDS011;67034;43.226;27.932;2024-03-07T02:45:35;16.83;;;7.78;;
77838;SDS011;67034;43.226;27.932;2024-03-07T02:50:27;18.90;;;8.10;;
77838;SDS011;67034;43.226;27.932;2024-03-07T02:55:21;11.00;;;7.47;;
77838;SDS011;67034;43.226;27.932;2024-03-07T02:57:47;19.00;;;7.32;;
77838;SDS011;67034;43.226;27.932;2024-03-07T03:00:13;17.02;;;9.55;;
77838;SDS011;67034;43.226;27.932;2024-03-07T03:02:52;14.70;;;8.40;;
77838;SDS011;67034;43.226;27.932;2024-03-07T03:05:18;16.75;;;8.35;;
77838;SDS011;67034;43.226;27.932;2024-03-07T03:10:18;17.77;;;7.63;;
77838;SDS011;67034;43.226;27.932;2024-03-07T03:12:46;16.38;;;9.18;;
77838;SDS011;67034;43.226;27.932;2024-03-07T03:17:40;18.25;;;8.50;;
77838;SDS011;67034;43.226;27.932;2024-03-07T03:22:50;16.00;;;7.32;;
77838;SDS011;67034;43.226;27.932;2024-03-07T03:25:18;13.93;;;8.27;;
77838;SDS011;67034;43.226;27.932;2024-03-07T03:27:46;14.23;;;7.68;;
77838;SDS011;67034;43.226;27.932;2024-03-07T03:30:12;16.48;;;8.38;;
77838;SDS011;67034;43.226;27.932;2024-03-07T03:32:39;13.70;;;7.55;;
77838;SDS011;67034;43.226;27.932;2024-03-07T03:35:06;13.75;;;8.00;;
77838;SDS011;67034;43.226;27.932;2024-03-07T03:37:39;18.95;;;9.80;;
77838;SDS011;67034;43.226;27.932;2024-03-07T03:40:07;15.73;;;8.90;;
77838;SDS011;67034;43.226;27.932;2024-03-07T03:42:35;15.88;;;9.23;;
77838;SDS011;67034;43.226;27.932;2024-03-07T03:45:03;18.23;;;8.75;;
77838;SDS011;67034;43.226;27.932;2024-03-07T03:47:33;20.35;;;10.40;;
77838;SDS011;67034;43.226;27.932;2024-03-07T03:50:01;20.13;;;10.02;;
77838;SDS011;67034;43.226;27.932;2024-03-07T03:52:28;18.83;;;8.55;;
77838;SDS011;67034;43.226;27.932;2024-03-07T03:57:21;16.40;;;8.35;;
77838;SDS011;67034;43.226;27.932;2024-03-07T03:59:48;17.50;;;9.20;;
77838;SDS011;67034;43.226;27.932;2024-03-07T04:04:42;20.48;;;9.68;;
77838;SDS011;67034;43.226;27.932;2024-03-07T04:07:11;19.35;;;9.15;;
77838;SDS011;67034;43.226;27.932;2024-03-07T04:09:38;15.65;;;8.57;;
77838;SDS011;67034;43.226;27.932;2024-03-07T04:12:04;18.08;;;9.30;;
77838;SDS011;67034;43.226;27.932;2024-03-07T04:14:31;15.23;;;8.60;;
77838;SDS011;67034;43.226;27.932;2024-03-07T04:17:00;14.68;;;8.30;;
77838;SDS011;67034;43.226;27.932;2024-03-07T04:19:29;19.55;;;9.38;;
77838;SDS011;67034;43.226;27.932;2024-03-07T04:21:56;17.88;;;9.10;;
77838;SDS011;67034;43.226;27.932;2024-03-07T04:26:48;16.63;;;7.82;;
77838;SDS011;67034;43.226;27.932;2024-03-07T04:29:14;14.20;;;8.27;;
77838;SDS011;67034;43.226;27.932;2024-03-07T04:31:40;15.30;;;7.78;;
77838;SDS011;67034;43.226;27.932;2024-03-07T04:39:00;14.32;;;7.97;;
77838;SDS011;67034;43.226;27.932;2024-03-07T04:41:29;16.42;;;8.38;;
77838;SDS011;67034;43.226;27.932;2024-03-07T04:46:21;14.95;;;7.53;;
77838;SDS011;67034;43.226;27.932;2024-03-07T04:48:48;16.23;;;7.25;;
77838;SDS011;67034;43.226;27.932;2024-03-07T04:51:14;13.43;;;6.88;;
77838;SDS011;67034;43.226;27.932;2024-03-07T04:56:08;20.73;;;7.70;;
77838;SDS011;67034;43.226;27.932;2024-03-07T04:58:35;16.17;;;8.35;;
77838;SDS011;67034;43.226;27.932;2024-03-07T05:01:01;14.77;;;7.40;;
77838;SDS011;67034;43.226;27.932;2024-03-07T05:03:28;16.15;;;8.93;;
77838;SDS011;67034;43.226;27.932;2024-03-07T05:05:55;15.48;;;8.23;;
77838;SDS011;67034;43.226;27.932;2024-03-07T05:08:22;19.38;;;9.15;;
77838;SDS011;67034;43.226;27.932;2024-03-07T05:13:17;16.48;;;8.32;;
77838;SDS011;67034;43.226;27.932;2024-03-07T05:15:43;16.98;;;9.13;;
77838;SDS011;67034;43.226;27.932;2024-03-07T05:18:10;13.52;;;7.47;;
77838;SDS011;67034;43.226;27.932;2024-03-07T05:20:37;13.65;;;8.30;;
77838;SDS011;67034;43.226;27.932;2024-03-07T05:23:04;14.48;;;7.53;;
77838;SDS011;67034;43.226;27.932;2024-03-07T05:25:31;17.88;;;8.23;;
77838;SDS011;67034;43.226;27.932;2024-03-07T05:27:58;19.27;;;7.95;;
77838;SDS011;67034;43.226;27.932;2024-03-07T05:30:25;15.70;;;8.02;;
77838;SDS011;67034;43.226;27.932;2024-03-07T05:32:51;21.05;;;8.27;;
77838;SDS011;67034;43.226;27.932;2024-03-07T05:35:17;13.75;;;8.32;;
77838;SDS011;67034;43.226;27.932;2024-03-07T05:37:44;14.45;;;7.38;;
77838;SDS011;67034;43.226;27.932;2024-03-07T05:40:12;12.77;;;7.82;;
77838;SDS011;67034;43.226;27.932;2024-03-07T05:42:39;18.73;;;9.13;;
77838;SDS011;67034;43.226;27.932;2024-03-07T05:45:07;18.42;;;8.52;;
77838;SDS011;67034;43.226;27.932;2024-03-07T05:47:33;13.07;;;7.82;;
77838;SDS011;67034;43.226;27.932;2024-03-07T05:50:00;14.32;;;8.23;;
77838;SDS011;67034;43.226;27.932;2024-03-07T05:52:26;16.92;;;8.50;;
77838;SDS011;67034;43.226;27.932;2024-03-07T05:54:53;17.33;;;7.93;;
77838;SDS011;67034;43.226;27.932;2024-03-07T05:57:19;16.98;;;9.07;;
77838;SDS011;67034;43.226;27.932;2024-03-07T05:59:45;16.63;;;8.75;;
77838;SDS011;67034;43.226;27.932;2024-03-07T06:02:14;15.80;;;9.50;;
77838;SDS011;67034;43.226;27.932;2024-03-07T06:04:41;15.30;;;7.53;;
77838;SDS011;67034;43.226;27.932;2024-03-07T06:07:08;12.45;;;8.15;;
77838;SDS011;67034;43.226;27.932;2024-03-07T06:09:36;15.68;;;9.38;;
77838;SDS011;67034;43.226;27.932;2024-03-07T06:12:02;14.20;;;7.77;;
77838;SDS011;67034;43.226;27.932;2024-03-07T06:14:29;14.88;;;9.18;;
77838;SDS011;67034;43.226;27.932;2024-03-07T06:16:56;19.88;;;9.65;;
77838;SDS011;67034;43.226;27.932;2024-03-07T06:19:25;20.80;;;10.68;;
77838;SDS011;67034;43.226;27.932;2024-03-07T06:21:51;18.33;;;9.57;;
77838;SDS011;67034;43.226;27.932;2024-03-07T06:24:19;21.38;;;11.05;;
77838;SDS011;67034;43.226;27.932;2024-03-07T06:26:47;17.85;;;9.48;;
77838;SDS011;67034;43.226;27.932;2024-03-07T06:31:52;17.73;;;9.82;;
77838;SDS011;67034;43.226;27.932;2024-03-07T06:34:20;20.42;;;10.13;;
77838;SDS011;67034;43.226;27.932;2024-03-07T06:36:47;22.80;;;9.80;;
77838;SDS011;67034;43.226;27.932;2024-03-07T06:39:13;19.33;;;9.93;;
77838;SDS011;67034;43.226;27.932;2024-03-07T06:41:40;17.63;;;9.45;;
77838;SDS011;67034;43.226;27.932;2024-03-07T06:44:06;18.05;;;10.15;;
77838;SDS011;67034;43.226;27.932;2024-03-07T06:46:33;16.98;;;9.68;;
77838;SDS011;67034;43.226;27.932;2024-03-07T06:49:00;20.35;;;8.45;;
77838;SDS011;67034;43.226;27.932;2024-03-07T06:51:26;15.60;;;9.00;;
77838;SDS011;67034;43.226;27.932;2024-03-07T06:53:54;11.68;;;8.27;;
77838;SDS011;67034;43.226;27.932;2024-03-07T06:56:21;22.43;;;8.87;;
77838;SDS011;67034;43.226;27.932;2024-03-07T06:58:49;13.35;;;8.00;;
77838;SDS011;67034;43.226;27.932;2024-03-07T07:01:15;12.82;;;7.55;;
77838;SDS011;67034;43.226;27.932;2024-03-07T07:03:42;14.70;;;9.20;;
77838;SDS011;67034;43.226;27.932;2024-03-07T07:06:14;13.75;;;7.53;;
77838;SDS011;67034;43.226;27.932;2024-03-07T07:08:40;17.48;;;8.32;;
77838;SDS011;67034;43.226;27.932;2024-03-07T07:11:08;16.80;;;8.95;;
77838;SDS011;67034;43.226;27.932;2024-03-07T07:13:34;15.63;;;8.05;;
77838;SDS011;67034;43.226;27.932;2024-03-07T07:16:02;18.08;;;8.48;;
77838;SDS011;67034;43.226;27.932;2024-03-07T07:18:29;17.63;;;9.13;;
77838;SDS011;67034;43.226;27.932;2024-03-07T07:20:56;20.17;;;9.00;;
77838;SDS011;67034;43.226;27.932;2024-03-07T07:23:23;16.90;;;9.30;;
77838;SDS011;67034;43.226;27.932;2024-03-07T07:25:50;13.90;;;8.43;;
77838;SDS011;67034;43.226;27.932;2024-03-07T07:28:17;15.40;;;8.18;;
77838;SDS011;67034;43.226;27.932;2024-03-07T07:30:44;15.52;;;6.90;;
77838;SDS011;67034;43.226;27.932;2024-03-07T07:33:10;16.60;;;7.88;;
77838;SDS011;67034;43.226;27.932;2024-03-07T07:35:36;13.55;;;8.85;;
77838;SDS011;67034;43.226;27.932;2024-03-07T07:38:02;15.93;;;7.63;;
77838;SDS011;67034;43.226;27.932;2024-03-07T07:40:29;14.68;;;8.10;;
77838;SDS011;67034;43.226;27.932;2024-03-07T07:42:56;17.03;;;8.43;;
77838;SDS011;67034;43.226;27.932;2024-03-07T07:45:24;14.07;;;7.93;;
77838;SDS011;67034;43.226;27.932;2024-03-07T07:47:51;12.48;;;7.30;;
77838;SDS011;67034;43.226;27.932;2024-03-07T07:50:19;11.30;;;7.63;;
77838;SDS011;67034;43.226;27.932;2024-03-07T07:52:46;16.40;;;8.63;;
77838;SDS011;67034;43.226;27.932;2024-03-07T07:55:16;13.60;;;7.63;;
77838;SDS011;67034;43.226;27.932;2024-03-07T07:57:43;11.98;;;7.13;;
77838;SDS011;67034;43.226;27.932;2024-03-07T08:00:11;16.13;;;7.53;;
77838;SDS011;67034;43.226;27.932;2024-03-07T08:02:39;16.05;;;7.43;;
77838;SDS011;67034;43.226;27.932;2024-03-07T08:05:06;11.38;;;6.43;;
77838;SDS011;67034;43.226;27.932;2024-03-07T08:07:33;15.07;;;7.53;;
77838;SDS011;67034;43.226;27.932;2024-03-07T08:09:59;15.20;;;7.55;;
77838;SDS011;67034;43.226;27.932;2024-03-07T08:12:25;19.38;;;7.82;;
77838;SDS011;67034;43.226;27.932;2024-03-07T08:14:52;15.80;;;7.67;;
77838;SDS011;67034;43.226;27.932;2024-03-07T08:17:18;14.43;;;7.97;;
77838;SDS011;67034;43.226;27.932;2024-03-07T08:19:45;13.82;;;6.65;;
77838;SDS011;67034;43.226;27.932;2024-03-07T08:22:12;13.13;;;7.63;;
77838;SDS011;67034;43.226;27.932;2024-03-07T08:24:38;14.65;;;7.15;;
77838;SDS011;67034;43.226;27.932;2024-03-07T08:27:04;13.33;;;7.43;;
77838;SDS011;67034;43.226;27.932;2024-03-07T08:29:31;16.02;;;7.57;;
77838;SDS011;67034;43.226;27.932;2024-03-07T08:31:57;14.27;;;7.97;;
77838;SDS011;67034;43.226;27.932;2024-03-07T08:34:23;14.70;;;7.18;;
77838;SDS011;67034;43.226;27.932;2024-03-07T08:36:51;17.30;;;8.43;;
77838;SDS011;67034;43.226;27.932;2024-03-07T08:39:17;18.45;;;6.90;;
77838;SDS011;67034;43.226;27.932;2024-03-07T08:41:43;14.57;;;7.68;;
77838;SDS011;67034;43.226;27.932;2024-03-07T08:44:12;16.42;;;7.38;;
77838;SDS011;67034;43.226;27.932;2024-03-07T08:46:39;17.05;;;7.53;;
77838;SDS011;67034;43.226;27.932;2024-03-07T08:49:05;18.55;;;7.85;;
77838;SDS011;67034;43.226;27.932;2024-03-07T08:51:31;15.87;;;9.00;;
77838;SDS011;67034;43.226;27.932;2024-03-07T08:53:59;15.85;;;7.30;;
77838;SDS011;67034;43.226;27.932;2024-03-07T08:56:25;18.53;;;7.70;;
77838;SDS011;67034;43.226;27.932;2024-03-07T08:58:51;12.30;;;7.13;;
77838;SDS011;67034;43.226;27.932;2024-03-07T09:01:17;15.20;;;7.07;;
77838;SDS011;67034;43.226;27.932;2024-03-07T09:03:43;13.55;;;8.50;;
77838;SDS011;67034;43.226;27.932;2024-03-07T09:06:10;17.02;;;7.93;;
77838;SDS011;67034;43.226;27.932;2024-03-07T09:08:39;18.08;;;7.72;;
77838;SDS011;67034;43.226;27.932;2024-03-07T09:11:06;15.88;;;7.78;;
77838;SDS011;67034;43.226;27.932;2024-03-07T09:13:32;16.05;;;8.27;;
77838;SDS011;67034;43.226;27.932;2024-03-07T09:15:59;13.75;;;7.00;;
77838;SDS011;67034;43.226;27.932;2024-03-07T09:18:25;18.35;;;7.57;;
77838;SDS011;67034;43.226;27.932;2024-03-07T09:20:51;11.15;;;7.03;;
77838;SDS011;67034;43.226;27.932;2024-03-07T09:23:17;20.67;;;8.10;;
77838;SDS011;67034;43.226;27.932;2024-03-07T09:25:43;18.45;;;7.82;;
77838;SDS011;67034;43.226;27.932;2024-03-07T09:28:12;18.95;;;8.75;;
77838;SDS011;67034;43.226;27.932;2024-03-07T09:30:39;18.35;;;8.48;;
77838;SDS011;67034;43.226;27.932;2024-03-07T09:33:06;17.30;;;9.38;;
77838;SDS011;67034;43.226;27.932;2024-03-07T09:35:36;24.98;;;9.50;;
77838;SDS011;67034;43.226;27.932;2024-03-07T09:38:03;20.50;;;8.85;;
77838;SDS011;67034;43.226;27.932;2024-03-07T09:40:30;18.45;;;9.90;;
77838;SDS011;67034;43.226;27.932;2024-03-07T09:42:56;22.58;;;11.35;;
77838;SDS011;67034;43.226;27.932;2024-03-07T09:45:30;18.60;;;9.77;;
77838;SDS011;67034;43.226;27.932;2024-03-07T09:47:59;17.67;;;10.93;;
77838;SDS011;67034;43.226;27.932;2024-03-07T09:50:34;22.73;;;11.01;;
77838;SDS011;67034;43.226;27.932;2024-03-07T09:53:01;24.70;;;10.98;;
77838;SDS011;67034;43.226;27.932;2024-03-07T09:55:30;26.48;;;10.48;;
77838;SDS011;67034;43.226;27.932;2024-03-07T09:57:57;23.83;;;9.88;;
77838;SDS011;67034;43.226;27.932;2024-03-07T10:00:25;17.52;;;10.25;;
77838;SDS011;67034;43.226;27.932;2024-03-07T10:02:54;27.52;;;11.55;;
77838;SDS011;67034;43.226;27.932;2024-03-07T10:05:26;20.45;;;12.63;;
77838;SDS011;67034;43.226;27.932;2024-03-07T10:07:53;22.98;;;12.48;;
77838;SDS011;67034;43.226;27.932;2024-03-07T10:10:19;21.25;;;10.93;;
77838;SDS011;67034;43.226;27.932;2024-03-07T10:12:45;20.48;;;10.52;;
77838;SDS011;67034;43.226;27.932;2024-03-07T10:15:12;15.47;;;9.23;;
77838;SDS011;67034;43.226;27.932;2024-03-07T10:17:38;17.17;;;10.00;;
77838;SDS011;67034;43.226;27.932;2024-03-07T10:20:08;22.05;;;12.82;;
77838;SDS011;67034;43.226;27.932;2024-03-07T10:22:39;17.08;;;10.00;;
77838;SDS011;67034;43.226;27.932;2024-03-07T10:25:06;19.50;;;10.35;;
77838;SDS011;67034;43.226;27.932;2024-03-07T10:27:35;19.52;;;10.23;;
77838;SDS011;67034;43.226;27.932;2024-03-07T10:30:02;18.02;;;9.82;;
77838;SDS011;67034;43.226;27.932;2024-03-07T10:32:34;17.70;;;9.34;;
77838;SDS011;67034;43.226;27.932;2024-03-07T10:35:01;16.23;;;9.50;;
77838;SDS011;67034;43.226;27.932;2024-03-07T10:37:30;17.17;;;9.10;;
77838;SDS011;67034;43.226;27.932;2024-03-07T10:39:56;17.40;;;9.45;;
77838;SDS011;67034;43.226;27.932;2024-03-07T10:42:23;16.42;;;9.15;;
77838;SDS011;67034;43.226;27.932;2024-03-07T10:44:56;23.80;;;11.05;;
77838;SDS011;67034;43.226;27.932;2024-03-07T10:47:30;20.27;;;11.13;;
77838;SDS011;67034;43.226;27.932;2024-03-07T10:50:02;16.83;;;10.77;;
77838;SDS011;67034;43.226;27.932;2024-03-07T10:52:43;20.63;;;10.47;;
77838;SDS011;67034;43.226;27.932;2024-03-07T10:55:19;11.98;;;8.70;;
77838;SDS011;67034;43.226;27.932;2024-03-07T10:57:54;16.73;;;9.45;;
77838;SDS011;67034;43.226;27.932;2024-03-07T11:00:27;18.25;;;10.13;;
77838;SDS011;67034;43.226;27.932;2024-03-07T11:03:09;24.92;;;11.45;;
77838;SDS011;67034;43.226;27.932;2024-03-07T11:05:36;17.75;;;10.00;;
77838;SDS011;67034;43.226;27.932;2024-03-07T11:08:05;21.92;;;10.23;;
77838;SDS011;67034;43.226;27.932;2024-03-07T11:10:36;19.02;;;9.65;;
77838;SDS011;67034;43.226;27.932;2024-03-07T11:13:03;19.45;;;10.20;;
77838;SDS011;67034;43.226;27.932;2024-03-07T11:15:30;17.05;;;9.93;;
77838;SDS011;67034;43.226;27.932;2024-03-07T11:17:57;21.05;;;11.13;;
77838;SDS011;67034;43.226;27.932;2024-03-07T11:20:25;19.48;;;9.80;;
77838;SDS011;67034;43.226;27.932;2024-03-07T11:22:52;15.65;;;10.10;;
77838;SDS011;67034;43.226;27.932;2024-03-07T11:25:22;15.68;;;10.68;;
77838;SDS011;67034;43.226;27.932;2024-03-07T11:27:52;22.17;;;10.70;;
77838;SDS011;67034;43.226;27.932;2024-03-07T11:30:21;27.10;;;10.20;;
77838;SDS011;67034;43.226;27.932;2024-03-07T11:32:50;22.50;;;10.55;;
77838;SDS011;67034;43.226;27.932;2024-03-07T11:35:20;21.77;;;10.25;;
77838;SDS011;67034;43.226;27.932;2024-03-07T11:37:58;18.13;;;9.32;;
77838;SDS011;67034;43.226;27.932;2024-03-07T11:40:44;23.58;;;10.13;;
77838;SDS011;67034;43.226;27.932;2024-03-07T11:43:14;14.57;;;9.13;;
77838;SDS011;67034;43.226;27.932;2024-03-07T11:45:42;19.85;;;9.68;;
77838;SDS011;67034;43.226;27.932;2024-03-07T11:48:12;20.77;;;10.10;;
77838;SDS011;67034;43.226;27.932;2024-03-07T11:50:38;20.77;;;10.32;;
77838;SDS011;67034;43.226;27.932;2024-03-07T11:53:06;18.48;;;9.93;;
77838;SDS011;67034;43.226;27.932;2024-03-07T11:55:33;17.52;;;10.10;;
77838;SDS011;67034;43.226;27.932;2024-03-07T11:58:13;23.48;;;10.77;;
77838;SDS011;67034;43.226;27.932;2024-03-07T12:00:42;15.80;;;9.50;;
77838;SDS011;67034;43.226;27.932;2024-03-07T12:03:10;18.05;;;9.45;;
77838;SDS011;67034;43.226;27.932;2024-03-07T12:05:40;22.10;;;9.73;;
77838;SDS011;67034;43.226;27.932;2024-03-07T12:08:07;19.77;;;10.45;;
77838;SDS011;67034;43.226;27.932;2024-03-07T12:10:35;18.52;;;9.90;;
77838;SDS011;67034;43.226;27.932;2024-03-07T12:13:03;13.00;;;8.82;;
77838;SDS011;67034;43.226;27.932;2024-03-07T12:15:31;24.35;;;9.43;;
77838;SDS011;67034;43.226;27.932;2024-03-07T12:17:58;20.63;;;10.35;;
77838;SDS011;67034;43.226;27.932;2024-03-07T12:20:27;25.88;;;11.00;;
77838;SDS011;67034;43.226;27.932;2024-03-07T12:22:59;15.93;;;9.77;;
77838;SDS011;67034;43.226;27.932;2024-03-07T12:25:28;17.95;;;9.00;;
77838;SDS011;67034;43.226;27.932;2024-03-07T12:28:01;17.65;;;9.52;;
77838;SDS011;67034;43.226;27.932;2024-03-07T12:30:33;13.10;;;8.60;;
77838;SDS011;67034;43.226;27.932;2024-03-07T12:33:01;19.50;;;9.70;;
77838;SDS011;67034;43.226;27.932;2024-03-07T12:37:58;17.50;;;9.88;;
77838;SDS011;67034;43.226;27.932;2024-03-07T12:40:25;16.33;;;9.10;;
77838;SDS011;67034;43.226;27.932;2024-03-07T12:42:54;17.35;;;10.40;;
77838;SDS011;67034;43.226;27.932;2024-03-07T12:45:21;19.30;;;9.30;;
77838;SDS011;67034;43.226;27.932;2024-03-07T12:47:48;21.58;;;10.32;;
77838;SDS011;67034;43.226;27.932;2024-03-07T12:50:20;19.00;;;10.50;;
77838;SDS011;67034;43.226;27.932;2024-03-07T12:52:46;23.40;;;10.60;;
77838;SDS011;67034;43.226;27.932;2024-03-07T12:55:16;19.38;;;9.35;;
77838;SDS011;67034;43.226;27.932;2024-03-07T12:57:49;23.55;;;9.68;;
77838;SDS011;67034;43.226;27.932;2024-03-07T13:00:18;18.60;;;10.02;;
77838;SDS011;67034;43.226;27.932;2024-03-07T13:02:46;16.63;;;10.13;;
77838;SDS011;67034;43.226;27.932;2024-03-07T13:05:14;16.58;;;9.85;;
77838;SDS011;67034;43.226;27.932;2024-03-07T13:07:45;17.65;;;9.93;;
77838;SDS011;67034;43.226;27.932;2024-03-07T13:10:12;16.58;;;9.55;;
77838;SDS011;67034;43.226;27.932;2024-03-07T13:12:44;21.33;;;10.30;;
77838;SDS011;67034;43.226;27.932;2024-03-07T13:15:11;23.27;;;10.95;;
77838;SDS011;67034;43.226;27.932;2024-03-07T13:17:38;18.40;;;9.52;;
77838;SDS011;67034;43.226;27.932;2024-03-07T13:20:04;17.65;;;10.00;;
77838;SDS011;67034;43.226;27.932;2024-03-07T13:22:39;16.58;;;8.95;;
77838;SDS011;67034;43.226;27.932;2024-03-07T13:25:08;19.33;;;9.95;;
77838;SDS011;67034;43.226;27.932;2024-03-07T13:27:43;19.13;;;10.25;;
77838;SDS011;67034;43.226;27.932;2024-03-07T13:30:17;19.65;;;10.35;;
77838;SDS011;67034;43.226;27.932;2024-03-07T13:32:53;16.98;;;10.20;;
77838;SDS011;67034;43.226;27.932;2024-03-07T13:35:20;15.70;;;9.90;;
77838;SDS011;67034;43.226;27.932;2024-03-07T13:37:49;17.20;;;10.80;;
77838;SDS011;67034;43.226;27.932;2024-03-07T13:40:16;17.45;;;11.27;;
77838;SDS011;67034;43.226;27.932;2024-03-07T13:42:50;26.30;;;10.93;;
77838;SDS011;67034;43.226;27.932;2024-03-07T13:45:17;18.95;;;10.02;;
77838;SDS011;67034;43.226;27.932;2024-03-07T13:47:44;21.77;;;12.43;;
77838;SDS011;67034;43.226;27.932;2024-03-07T13:50:10;26.17;;;15.38;;
77838;SDS011;67034;43.226;27.932;2024-03-07T13:52:37;24.92;;;13.43;;
77838;SDS011;67034;43.226;27.932;2024-03-07T13:55:11;23.00;;;12.23;;
77838;SDS011;67034;43.226;27.932;2024-03-07T13:57:40;21.95;;;11.48;;
77838;SDS011;67034;43.226;27.932;2024-03-07T14:00:24;19.50;;;10.63;;
77838;SDS011;67034;43.226;27.932;2024-03-07T14:06:20;18.77;;;10.38;;
77838;SDS011;67034;43.226;27.932;2024-03-07T14:09:13;15.52;;;9.10;;
77838;SDS011;67034;43.226;27.932;2024-03-07T14:18:22;18.48;;;11.02;;
77838;SDS011;67034;43.226;27.932;2024-03-07T14:21:40;18.55;;;10.07;;
77838;SDS011;67034;43.226;27.932;2024-03-07T14:27:20;21.02;;;10.38;;
77838;SDS011;67034;43.226;27.932;2024-03-07T14:29:55;28.20;;;10.52;;
77838;SDS011;67034;43.226;27.932;2024-03-07T14:32:35;21.58;;;9.82;;
77838;SDS011;67034;43.226;27.932;2024-03-07T14:35:08;22.30;;;10.27;;
77838;SDS011;67034;43.226;27.932;2024-03-07T14:37:45;19.42;;;9.88;;
77838;SDS011;67034;43.226;27.932;2024-03-07T14:40:17;19.55;;;10.05;;
77838;SDS011;67034;43.226;27.932;2024-03-07T14:42:45;20.20;;;10.35;;
77838;SDS011;67034;43.226;27.932;2024-03-07T14:45:14;24.58;;;10.90;;
77838;SDS011;67034;43.226;27.932;2024-03-07T14:47:45;19.08;;;10.05;;
77838;SDS011;67034;43.226;27.932;2024-03-07T14:50:15;17.20;;;9.32;;
77838;SDS011;67034;43.226;27.932;2024-03-07T14:52:42;18.55;;;10.95;;
77838;SDS011;67034;43.226;27.932;2024-03-07T14:55:10;16.92;;;9.70;;
77838;SDS011;67034;43.226;27.932;2024-03-07T14:57:40;20.10;;;10.02;;
77838;SDS011;67034;43.226;27.932;2024-03-07T15:00:07;23.88;;;11.10;;
77838;SDS011;67034;43.226;27.932;2024-03-07T15:02:46;24.13;;;11.90;;
77838;SDS011;67034;43.226;27.932;2024-03-07T15:05:13;24.85;;;12.18;;
77838;SDS011;67034;43.226;27.932;2024-03-07T15:07:42;27.83;;;12.57;;
77838;SDS011;67034;43.226;27.932;2024-03-07T15:10:11;20.70;;;11.02;;
77838;SDS011;67034;43.226;27.932;2024-03-07T15:12:44;23.67;;;12.38;;
77838;SDS011;67034;43.226;27.932;2024-03-07T15:15:12;26.08;;;14.50;;
77838;SDS011;67034;43.226;27.932;2024-03-07T15:17:39;20.48;;;11.18;;
77838;SDS011;67034;43.226;27.932;2024-03-07T15:20:07;18.65;;;12.15;;
77838;SDS011;67034;43.226;27.932;2024-03-07T15:22:42;21.10;;;10.52;;
77838;SDS011;67034;43.226;27.932;2024-03-07T15:25:12;18.38;;;10.23;;
77838;SDS011;67034;43.226;27.932;2024-03-07T15:27:38;20.00;;;10.25;;
77838;SDS011;67034;43.226;27.932;2024-03-07T15:30:05;19.55;;;10.75;;
77838;SDS011;67034;43.226;27.932;2024-03-07T15:32:39;21.20;;;11.18;;
77838;SDS011;67034;43.226;27.932;2024-03-07T15:35:07;19.63;;;10.70;;
77838;SDS011;67034;43.226;27.932;2024-03-07T15:37:38;25.60;;;12.75;;
77838;SDS011;67034;43.226;27.932;2024-03-07T15:40:07;23.77;;;11.90;;
77838;SDS011;67034;43.226;27.932;2024-03-07T15:42:40;28.35;;;10.90;;
77838;SDS011;67034;43.226;27.932;2024-03-07T15:45:07;23.33;;;10.75;;